Time;durP1;ratioP1;P1;durP2;ratioP2;P2;SDS_P1;SDS_P2;PMS_P1;PMS_P2;Temp;Humidity;BMP_temperature;BMP_pressure;BME280_temperature;BME280_humidity;BME280_pressure;Samples;Min_cycle;Max_cycle;Signal;HPM_P1;HPM_P2
2023/12/28 00:02:09;;;;;;;;;;;;;;;5.83;63.92;100451.25;5030171;28;20020;-85
2023/12/28 00:04:35;;;;;;;;;;;;;;;5.92;63.42;100461.72;5028853;28;19936;-82
2023/12/28 00:07:03;;;;;;;;;;;;;;;5.92;63.32;100461.72;5039885;28;19980;-86
2023/12/28 00:09:30;;;;;;;;;;;;;;;5.87;63.71;100465.16;5024099;28;19929;-83
2023/12/28 00:11:57;;;;;;;;;;;;;;;5.92;63.09;100458.22;5015440;28;19936;-84
2023/12/28 00:14:24;;;;;;;;;;;;;;;6.04;62.50;100450.50;5026747;28;19924;-83
2023/12/28 00:16:50;;;;;;;;;;;;;;;6.15;61.92;100463.56;5027761;28;19929;-84
2023/12/28 00:19:19;;;;;;;;;;;;;;;6.14;61.74;100472.25;5021390;28;19933;-83
2023/12/28 00:21:46;;;;;;;;;;;;;;;6.16;61.94;100467.91;5022106;28;19925;-83
2023/12/28 00:24:14;;;;;;;;;;;;;;;6.10;62.19;100465.31;5021534;28;19925;-84
2023/12/28 00:26:41;;;;;;;;;;;;;;;5.98;62.81;100471.34;5026253;28;19940;-83
2023/12/28 00:29:08;;;;;;;;;;;;;;;5.90;62.99;100473.84;5033300;28;19932;-82
2023/12/28 00:31:35;;;;;;;;;;;;;;;5.92;62.88;100472.16;5025021;28;19948;-83
2023/12/28 00:34:02;;;;;;;;;;;;;;;5.92;62.81;100477.34;5030272;28;19925;-83
2023/12/28 00:36:29;;;;;;;;;;;;;;;5.85;63.04;100478.19;5026583;28;19925;-83
2023/12/28 00:38:56;;;;;;;;;;;;;;;5.74;63.75;100478.13;5014076;28;19943;-88
2023/12/28 00:41:23;;;;;;;;;;;;;;;5.74;63.67;100472.06;5030770;28;19976;-85
2023/12/28 00:43:50;;;;;;;;;;;;;;;5.87;62.89;100484.25;5021460;28;20035;-82
2023/12/28 00:46:17;;;;;;;;;;;;;;;5.74;63.37;100479.88;5025348;28;19925;-84
2023/12/28 00:48:43;;;;;;;;;;;;;;;5.73;63.50;100476.38;5020433;28;19925;-85
2023/12/28 00:51:10;;;;;;;;;;;;;;;5.73;63.27;100485.91;5025170;28;19925;-83
2023/12/28 00:53:37;;;;;;;;;;;;;;;5.81;63.10;100486.84;5038961;28;19947;-84
2023/12/28 00:56:04;;;;;;;;;;;;;;;5.75;63.46;100476.41;5024958;28;19926;-83
2023/12/28 00:58:31;;;;;;;;;;;;;;;5.66;63.51;100489.34;5038817;28;20012;-82
2023/12/28 01:00:58;;;;;;;;;;;;;;;5.65;63.75;100493.69;5033669;28;19995;-83
2023/12/28 01:03:25;;;;;;;;;;;;;;;5.61;63.88;100496.28;5015385;28;19999;-83
2023/12/28 01:05:52;;;;;;;;;;;;;;;5.54;64.38;100485.81;5025542;28;19941;-82
2023/12/28 01:08:19;;;;;;;;;;;;;;;5.61;63.76;100496.28;5028212;28;20310;-83
2023/12/28 01:10:46;;;;;;;;;;;;;;;5.59;64.00;100488.47;5028574;28;19925;-83
2023/12/28 01:13:13;;;;;;;;;;;;;;;5.67;63.61;100491.09;5027904;28;19925;-83
2023/12/28 01:15:40;;;;;;;;;;;;;;;5.70;63.47;100491.13;5029023;28;20025;-85
2023/12/28 01:18:07;;;;;;;;;;;;;;;5.70;63.64;100491.97;5026457;28;19939;-82
2023/12/28 01:20:34;;;;;;;;;;;;;;;5.64;63.86;100497.16;5042030;28;19928;-82
2023/12/28 01:23:02;;;;;;;;;;;;;;;5.85;62.96;100499.03;5029777;28;19925;-83
2023/12/28 01:25:28;;;;;;;;;;;;;;;5.72;63.52;100494.59;5028362;28;19929;-85
2023/12/28 01:27:55;;;;;;;;;;;;;;;5.61;64.35;100493.69;5030587;28;19980;-83
2023/12/28 01:30:22;;;;;;;;;;;;;;;5.46;64.98;100497.03;5026731;28;19940;-93
2023/12/28 01:32:50;;;;;;;;;;;;;;;5.47;64.66;100489.22;5004832;28;19925;-88
2023/12/28 01:35:17;;;;;;;;;;;;;;;5.56;64.26;100510.13;5033780;28;19933;-82
2023/12/28 01:37:43;;;;;;;;;;;;;;;5.55;64.60;100516.19;5028886;28;19927;-83
2023/12/28 01:40:11;;;;;;;;;;;;;;;5.55;64.70;100524.00;5040709;28;19925;-82
2023/12/28 01:42:39;;;;;;;;;;;;;;;5.55;65.10;100518.81;5042368;28;19943;-82
2023/12/28 01:45:06;;;;;;;;;;;;;;;5.55;64.95;100518.81;5042967;28;20364;-82
2023/12/28 01:47:32;;;;;;;;;;;;;;;5.56;65.04;100507.53;5029962;28;19925;-84
2023/12/28 01:49:59;;;;;;;;;;;;;;;5.61;65.42;100524.91;5028790;28;20012;-85
2023/12/28 01:52:27;;;;;;;;;;;;;;;5.77;64.41;100526.75;5025062;28;20239;-84
2023/12/28 01:54:54;;;;;;;;;;;;;;;5.77;64.38;100528.50;5008309;28;19926;-83
2023/12/28 01:57:21;;;;;;;;;;;;;;;5.80;64.84;100531.97;5028002;28;19976;-86
2023/12/28 01:59:48;;;;;;;;;;;;;;;5.81;65.00;100531.13;5047050;28;19978;-83
2023/12/28 02:02:14;;;;;;;;;;;;;;;5.92;64.12;100541.59;5032116;28;19929;-83
2023/12/28 02:04:41;;;;;;;;;;;;;;;6.03;63.39;100537.34;5018967;28;19956;-88
2023/12/28 02:07:08;;;;;;;;;;;;;;;6.03;63.66;100533.88;5020320;28;20277;-83
2023/12/28 02:09:35;;;;;;;;;;;;;;;6.11;63.27;100547.78;5038610;28;19925;-84
2023/12/28 02:12:02;;;;;;;;;;;;;;;6.18;63.27;100557.38;5026389;28;19944;-83
2023/12/28 02:14:29;;;;;;;;;;;;;;;6.27;62.16;100556.56;5038965;28;19925;-84
2023/12/28 02:17:13;;;;;;;;;;;;;;;6.22;62.81;100553.94;5029100;28;19925;-83
2023/12/28 02:19:43;;;;;;;;;;;;;;;6.21;62.82;100557.44;5031591;28;19953;-83
2023/12/28 02:22:10;;;;;;;;;;;;;;;6.17;63.21;100555.66;5028872;28;19932;-83
2023/12/28 02:25:11;;;;;;;;;;;;;;;6.19;63.04;100561.75;5015302;28;19925;-82
2023/12/28 02:27:48;;;;;;;;;;;;;;;6.30;62.49;100556.59;5029033;28;19925;-83
2023/12/28 02:30:16;;;;;;;;;;;;;;;6.22;63.17;100558.28;5028961;28;19925;-85
2023/12/28 02:32:56;;;;;;;;;;;;;;;6.32;62.74;100559.19;5021597;28;19967;-85
2023/12/28 02:35:24;;;;;;;;;;;;;;;6.34;62.69;100554.84;5027859;28;20455;-83
2023/12/28 02:37:52;;;;;;;;;;;;;;;6.31;63.40;100549.63;5010018;28;19953;-87
2023/12/28 02:40:19;;;;;;;;;;;;;;;6.32;63.43;100569.63;5040720;28;19935;-83
2023/12/28 02:42:46;;;;;;;;;;;;;;;6.28;64.04;100557.44;5025570;28;19925;-84
2023/12/28 02:45:12;;;;;;;;;;;;;;;6.24;64.46;100554.81;5038701;28;20011;-84
2023/12/28 02:47:39;;;;;;;;;;;;;;;6.22;64.98;100564.34;5029195;28;19925;-85
2023/12/28 02:50:07;;;;;;;;;;;;;;;6.42;63.35;100555.78;5033680;28;19932;-82
2023/12/28 02:52:34;;;;;;;;;;;;;;;6.41;63.59;100543.59;5015571;28;19951;-85
2023/12/28 02:55:00;;;;;;;;;;;;;;;6.56;63.48;100553.19;5033613;28;19929;-83
2023/12/28 02:57:27;;;;;;;;;;;;;;;6.54;63.76;100553.19;5025200;28;19933;-83
2023/12/28 02:59:56;;;;;;;;;;;;;;;6.61;62.82;100548.88;5025316;28;19932;-84
2023/12/28 03:02:23;;;;;;;;;;;;;;;6.57;62.98;100534.94;5019697;28;19925;-84
2023/12/28 03:04:52;;;;;;;;;;;;;;;6.49;64.09;100541.00;5022350;28;19957;-84
2023/12/28 03:07:19;;;;;;;;;;;;;;;6.45;64.54;100540.13;5029843;28;19971;-83
2023/12/28 03:09:46;;;;;;;;;;;;;;;6.50;64.33;100541.00;5019766;28;19925;-84
2023/12/28 03:12:13;;;;;;;;;;;;;;;6.46;65.37;100541.88;5015224;28;20022;-86
2023/12/28 03:14:40;;;;;;;;;;;;;;;6.37;66.27;100554.88;5029902;28;19979;-86
2023/12/28 03:17:07;;;;;;;;;;;;;;;6.37;66.23;100557.47;5021619;28;20435;-83
2023/12/28 03:19:34;;;;;;;;;;;;;;;6.37;66.84;100547.03;5028843;28;20330;-85
2023/12/28 03:22:01;;;;;;;;;;;;;;;6.36;67.78;100550.53;5019847;28;19929;-83
2023/12/28 03:24:28;;;;;;;;;;;;;;;6.52;68.19;100544.50;5034898;28;20408;-83
2023/12/28 03:26:55;;;;;;;;;;;;;;;6.65;69.13;100548.03;5017248;28;19932;-84
2023/12/28 03:29:22;;;;;;;;;;;;;;;6.70;69.83;100542.81;5020106;28;19924;-83
2023/12/28 03:31:49;;;;;;;;;;;;;;;6.71;70.57;100527.16;5022291;28;19930;-83
2023/12/28 03:34:17;;;;;;;;;;;;;;;6.96;71.33;100535.03;5023905;28;19925;-83
2023/12/28 03:36:44;;;;;;;;;;;;;;;6.88;71.72;100532.41;5022687;28;19964;-85
2023/12/28 03:39:11;;;;;;;;;;;;;;;7.00;72.52;100539.38;5028947;28;19982;-84
2023/12/28 03:41:38;;;;;;;;;;;;;;;6.99;72.54;100534.16;5029811;28;19929;-83
2023/12/28 03:44:05;;;;;;;;;;;;;;;7.06;72.69;100528.94;5025630;28;19975;-84
2023/12/28 03:46:32;;;;;;;;;;;;;;;7.08;72.51;100522.00;5025710;28;19940;-84
2023/12/28 03:48:58;;;;;;;;;;;;;;;7.19;72.61;100519.38;5015989;28;19925;-84
2023/12/28 03:51:26;;;;;;;;;;;;;;;7.12;73.04;100517.66;5031752;28;19926;-83
2023/12/28 03:53:52;;;;;;;;;;;;;;;7.24;72.51;100532.44;5029047;28;19925;-87
2023/12/28 03:56:23;;;;;;;;;;;;;;;7.22;72.22;100532.44;5021597;28;19925;-83
2023/12/28 03:58:50;;;;;;;;;;;;;;;7.19;72.06;100548.09;5013086;28;20324;-83
2023/12/28 04:01:21;;;;;;;;;;;;;;;7.08;70.61;100542.88;5013687;28;19987;-84
2023/12/28 04:03:48;;;;;;;;;;;;;;;7.03;71.99;100559.41;5018639;28;19940;-83
2023/12/28 04:06:15;;;;;;;;;;;;;;;7.06;73.76;100565.47;5016254;28;19931;-87
2023/12/28 04:08:42;;;;;;;;;;;;;;;7.16;74.78;100557.69;5011318;28;19937;-83
2023/12/28 04:11:09;;;;;;;;;;;;;;;7.25;75.79;100553.31;5021748;28;19925;-83
2023/12/28 04:13:36;;;;;;;;;;;;;;;7.30;77.24;100558.56;5014967;28;19932;-83
2023/12/28 04:16:03;;;;;;;;;;;;;;;7.29;77.84;100570.72;5013793;28;19929;-83
2023/12/28 04:18:30;;;;;;;;;;;;;;;7.48;78.50;100574.19;5024629;28;19932;-83
2023/12/28 04:20:57;;;;;;;;;;;;;;;7.56;78.45;100587.28;5019072;28;19957;-86
2023/12/28 04:23:24;;;;;;;;;;;;;;;7.61;78.60;100590.75;5004425;28;19925;-83
2023/12/28 04:25:51;;;;;;;;;;;;;;;7.54;79.19;100589.00;5018572;28;19936;-83
2023/12/28 04:28:18;;;;;;;;;;;;;;;7.51;78.94;100578.56;5036051;28;19931;-83
2023/12/28 04:30:45;;;;;;;;;;;;;;;7.52;78.68;100577.69;5021600;28;19930;-83
2023/12/28 04:33:12;;;;;;;;;;;;;;;7.45;79.12;100576.81;5018794;28;19941;-83
2023/12/28 04:35:39;;;;;;;;;;;;;;;7.45;79.39;100574.22;5017566;28;19972;-83
2023/12/28 04:38:05;;;;;;;;;;;;;;;7.46;79.78;100578.56;5022352;28;19971;-84
2023/12/28 04:40:33;;;;;;;;;;;;;;;7.44;79.67;100571.59;5011569;28;19929;-83
2023/12/28 04:43:00;;;;;;;;;;;;;;;7.38;79.67;100582.91;5013676;28;19926;-83
2023/12/28 04:45:27;;;;;;;;;;;;;;;7.37;79.61;100577.69;5016327;28;19957;-84
2023/12/28 04:47:54;;;;;;;;;;;;;;;7.31;80.12;100568.09;5011199;28;19925;-84
2023/12/28 04:50:22;;;;;;;;;;;;;;;7.32;80.81;100573.31;5022341;28;20048;-82
2023/12/28 04:52:48;;;;;;;;;;;;;;;7.33;81.34;100563.78;5030060;28;19925;-83
2023/12/28 04:55:20;;;;;;;;;;;;;;;7.32;82.06;100557.66;5021114;28;19960;-84
2023/12/28 04:57:47;;;;;;;;;;;;;;;7.35;82.30;100571.59;5010066;28;19936;-82
2023/12/28 05:00:14;;;;;;;;;;;;;;;7.34;82.76;100580.31;5031341;28;19925;-83
2023/12/28 05:02:41;;;;;;;;;;;;;;;7.32;83.14;100585.53;5022816;28;19925;-83
2023/12/28 05:05:10;;;;;;;;;;;;;;;7.34;83.55;100590.75;5025545;28;19932;-83
2023/12/28 05:07:36;;;;;;;;;;;;;;;7.33;83.83;100600.31;5027863;28;19925;-85
2023/12/28 05:10:03;;;;;;;;;;;;;;;7.36;84.00;100594.22;5030321;28;20020;-83
2023/12/28 05:12:30;;;;;;;;;;;;;;;7.40;84.31;100601.19;5028058;28;19925;-82
2023/12/28 05:15:09;;;;;;;;;;;;;;;7.34;84.70;100601.19;5020258;28;19972;-83
2023/12/28 05:17:36;;;;;;;;;;;;;;;7.39;84.84;100607.31;5029512;28;19929;-83
2023/12/28 05:20:03;;;;;;;;;;;;;;;7.35;84.72;100597.72;5029924;28;19926;-83
2023/12/28 05:22:30;;;;;;;;;;;;;;;7.36;84.91;100604.66;5026671;28;19925;-82
2023/12/28 05:24:57;;;;;;;;;;;;;;;7.38;84.95;100610.78;5021478;28;19925;-84
2023/12/28 05:27:24;;;;;;;;;;;;;;;7.41;85.27;100608.16;5022994;28;19925;-83
2023/12/28 05:29:51;;;;;;;;;;;;;;;7.36;85.49;100604.66;5027016;28;19925;-83
2023/12/28 05:32:17;;;;;;;;;;;;;;;7.38;85.31;100601.19;5019933;28;19938;-83
2023/12/28 05:34:44;;;;;;;;;;;;;;;7.36;85.25;100602.03;5017570;28;19925;-83
2023/12/28 05:37:11;;;;;;;;;;;;;;;7.41;84.97;100606.41;5028984;28;19979;-84
2023/12/28 05:39:38;;;;;;;;;;;;;;;7.42;84.86;100605.53;5022671;28;19999;-83
2023/12/28 05:42:05;;;;;;;;;;;;;;;7.41;84.91;100603.78;5030898;28;19958;-83
2023/12/28 05:44:32;;;;;;;;;;;;;;;7.38;85.42;100605.56;5028131;28;20345;-85
2023/12/28 05:47:01;;;;;;;;;;;;;;;7.40;85.51;100609.91;5029782;28;20019;-83
2023/12/28 05:49:28;;;;;;;;;;;;;;;7.43;85.20;100612.50;5035553;28;20039;-83
2023/12/28 05:51:55;;;;;;;;;;;;;;;7.43;85.37;100622.06;5032840;28;19949;-84
2023/12/28 05:54:22;;;;;;;;;;;;;;;7.44;85.49;100608.16;5026048;28;19925;-83
2023/12/28 05:56:49;;;;;;;;;;;;;;;7.43;85.34;100607.28;5031233;28;19944;-83
2023/12/28 05:59:16;;;;;;;;;;;;;;;7.44;85.49;100600.31;5017526;28;19928;-84
2023/12/28 06:01:44;;;;;;;;;;;;;;;7.46;85.45;100601.22;5039885;28;20036;-83
2023/12/28 06:04:11;;;;;;;;;;;;;;;7.41;85.34;100610.75;5025815;28;19926;-86
2023/12/28 06:06:39;;;;;;;;;;;;;;;7.42;85.84;100618.59;5039698;28;19987;-83
2023/12/28 06:09:05;;;;;;;;;;;;;;;7.42;85.41;100625.56;5029550;28;19925;-83
2023/12/28 06:11:32;;;;;;;;;;;;;;;7.42;85.50;100626.44;5018114;28;19929;-84
2023/12/28 06:13:59;;;;;;;;;;;;;;;7.43;85.69;100632.50;5030566;28;19925;-84
2023/12/28 06:16:26;;;;;;;;;;;;;;;7.42;85.34;100634.25;5021649;28;19933;-85
2023/12/28 06:18:53;;;;;;;;;;;;;;;7.43;85.36;100638.63;5015540;28;19925;-84
2023/12/28 06:21:20;;;;;;;;;;;;;;;7.47;85.50;100645.59;5019376;28;19955;-86
2023/12/28 06:23:47;;;;;;;;;;;;;;;7.48;85.52;100646.47;5020042;28;19936;-84
2023/12/28 06:26:14;;;;;;;;;;;;;;;7.54;85.44;100654.28;5018797;28;20223;-85
2023/12/28 06:28:41;;;;;;;;;;;;;;;7.49;85.51;100653.44;5035135;28;19925;-83
2023/12/28 06:31:08;;;;;;;;;;;;;;;7.49;85.76;100653.44;5014303;28;19929;-84
2023/12/28 06:33:34;;;;;;;;;;;;;;;7.49;85.73;100658.66;5025633;28;19933;-84
2023/12/28 06:36:05;;;;;;;;;;;;;;;7.51;85.74;100656.03;5013440;28;19948;-83
2023/12/28 06:38:33;;;;;;;;;;;;;;;7.56;85.49;100655.19;5027470;28;19932;-84
2023/12/28 06:41:00;;;;;;;;;;;;;;;7.55;85.69;100658.66;5023368;28;19926;-83
2023/12/28 06:43:26;;;;;;;;;;;;;;;7.53;85.53;100657.78;5021474;28;19925;-85
2023/12/28 06:45:53;;;;;;;;;;;;;;;7.60;85.56;100646.47;5025651;28;20023;-84
2023/12/28 06:48:20;;;;;;;;;;;;;;;7.63;85.29;100641.25;5022869;28;20416;-84
2023/12/28 06:50:47;;;;;;;;;;;;;;;7.62;85.26;100646.47;5017057;28;19929;-84
2023/12/28 06:53:14;;;;;;;;;;;;;;;7.61;85.36;100653.44;5034570;28;19924;-84
2023/12/28 06:55:41;;;;;;;;;;;;;;;7.63;85.38;100640.38;5012266;28;19971;-85
2023/12/28 06:58:08;;;;;;;;;;;;;;;7.64;85.16;100642.97;5025990;28;19925;-84
2023/12/28 07:00:34;;;;;;;;;;;;;;;7.63;85.33;100645.59;5029093;28;19925;-84
2023/12/28 07:03:01;;;;;;;;;;;;;;;7.62;85.30;100644.72;5018805;28;19925;-85
2023/12/28 07:05:28;;;;;;;;;;;;;;;7.60;85.42;100646.47;5019560;28;19925;-84
2023/12/28 07:07:55;;;;;;;;;;;;;;;7.60;85.09;100641.25;5021096;28;19929;-84
2023/12/28 07:10:22;;;;;;;;;;;;;;;7.61;85.27;100645.59;5029924;28;19948;-84
2023/12/28 07:12:49;;;;;;;;;;;;;;;7.61;84.86;100647.34;5028014;28;19925;-84
2023/12/28 07:15:16;;;;;;;;;;;;;;;7.65;84.73;100649.94;5026880;28;19932;-83
2023/12/28 07:17:43;;;;;;;;;;;;;;;7.66;84.43;100656.03;5024094;28;19979;-85
2023/12/28 07:20:10;;;;;;;;;;;;;;;7.70;84.51;100652.56;5018928;28;19933;-83
2023/12/28 07:22:38;;;;;;;;;;;;;;;7.71;84.21;100654.31;5021771;28;19972;-84
2023/12/28 07:25:07;;;;;;;;;;;;;;;7.70;84.27;100646.47;5020639;28;20019;-83
2023/12/28 07:27:34;;;;;;;;;;;;;;;7.74;84.42;100663.91;5016426;28;19971;-83
2023/12/28 07:30:01;;;;;;;;;;;;;;;7.78;83.85;100676.09;5017698;28;20020;-84
2023/12/28 07:32:31;;;;;;;;;;;;;;;7.79;84.20;100677.81;5027573;28;19932;-84
2023/12/28 07:34:59;;;;;;;;;;;;;;;7.74;83.99;100685.66;5011566;28;20371;-87
2023/12/28 07:37:25;;;;;;;;;;;;;;;7.82;83.83;100689.16;5021649;28;19939;-83
2023/12/28 07:39:53;;;;;;;;;;;;;;;7.79;84.03;100690.88;5016776;28;19960;-84
2023/12/28 07:42:20;;;;;;;;;;;;;;;7.76;84.55;100688.25;5018698;28;19939;-85
2023/12/28 07:44:47;;;;;;;;;;;;;;;7.71;84.80;100685.66;5033297;28;20368;-84
2023/12/28 07:47:15;;;;;;;;;;;;;;;7.74;84.88;100690.03;5018751;28;19925;-83
2023/12/28 07:49:41;;;;;;;;;;;;;;;7.74;84.84;100684.78;5033536;28;19935;-83
2023/12/28 07:52:08;;;;;;;;;;;;;;;7.81;84.68;100691.75;5023571;28;19980;-84
2023/12/28 07:54:35;;;;;;;;;;;;;;;7.82;84.28;100693.47;5042266;28;19979;-84
2023/12/28 07:57:02;;;;;;;;;;;;;;;7.78;84.83;100697.84;5016080;28;19925;-89
2023/12/28 07:59:29;;;;;;;;;;;;;;;7.72;85.11;100697.84;5036175;28;19925;-84
2023/12/28 08:01:56;;;;;;;;;;;;;;;7.74;84.89;100690.03;5027523;28;19925;-86
2023/12/28 08:04:24;;;;;;;;;;;;;;;7.72;85.15;100703.09;5012998;28;19925;-84
2023/12/28 08:06:51;;;;;;;;;;;;;;;7.82;84.56;100703.94;5038708;28;19959;-84
2023/12/28 08:09:19;;;;;;;;;;;;;;;7.81;84.40;100707.44;5036021;28;19937;-86
2023/12/28 08:11:45;;;;;;;;;;;;;;;7.83;84.42;100708.31;5029794;28;19972;-84
2023/12/28 08:14:12;;;;;;;;;;;;;;;7.77;84.89;100706.56;5022395;28;19926;-84
2023/12/28 08:16:39;;;;;;;;;;;;;;;7.76;84.88;100711.78;5032560;28;19932;-84
2023/12/28 08:19:06;;;;;;;;;;;;;;;7.70;85.54;100698.72;5022977;28;19936;-86
2023/12/28 08:21:32;;;;;;;;;;;;;;;7.67;85.73;100712.66;5017579;28;19934;-84
2023/12/28 08:23:59;;;;;;;;;;;;;;;7.63;85.94;100714.41;5044897;28;19952;-84
2023/12/28 08:26:26;;;;;;;;;;;;;;;7.62;85.97;100720.47;5018293;28;19930;-84
2023/12/28 08:28:53;;;;;;;;;;;;;;;7.63;85.99;100721.34;5023688;28;19932;-83
2023/12/28 08:31:20;;;;;;;;;;;;;;;7.64;86.20;100720.47;5031584;28;19964;-84
2023/12/28 08:33:47;;;;;;;;;;;;;;;7.63;86.02;100724.84;5027783;28;19926;-85
2023/12/28 08:36:13;;;;;;;;;;;;;;;7.62;86.46;100722.22;5030382;28;19925;-84
2023/12/28 08:38:40;;;;;;;;;;;;;;;7.58;86.34;100715.25;5014468;28;20027;-84
2023/12/28 08:41:08;;;;;;;;;;;;;;;7.60;86.48;100710.88;5037109;28;20024;-84
2023/12/28 08:43:36;;;;;;;;;;;;;;;7.58;86.60;100705.66;5026308;28;19936;-84
2023/12/28 08:46:03;;;;;;;;;;;;;;;7.53;86.99;100707.41;5036899;28;20015;-86
2023/12/28 08:48:30;;;;;;;;;;;;;;;7.58;86.35;100715.25;5039766;28;19928;-85
2023/12/28 08:50:57;;;;;;;;;;;;;;;7.57;86.38;100718.72;5030024;28;19925;-84
2023/12/28 08:53:23;;;;;;;;;;;;;;;7.59;86.18;100717.88;5037046;28;20015;-84
2023/12/28 08:55:50;;;;;;;;;;;;;;;7.58;86.38;100716.13;5029313;28;20329;-84
2023/12/28 08:58:17;;;;;;;;;;;;;;;7.57;86.57;100709.13;5022962;28;19932;-86
2023/12/28 09:00:45;;;;;;;;;;;;;;;7.63;86.66;100709.16;5030731;28;19948;-84
2023/12/28 09:03:12;;;;;;;;;;;;;;;7.68;85.71;100714.41;5026585;28;19925;-86
2023/12/28 09:05:39;;;;;;;;;;;;;;;7.66;85.97;100708.28;5033193;28;19925;-83
2023/12/28 09:08:06;;;;;;;;;;;;;;;7.71;85.23;100714.41;5037481;28;20001;-87
2023/12/28 09:10:33;;;;;;;;;;;;;;;7.67;85.84;100707.41;5033544;28;19967;-85
2023/12/28 09:12:59;;;;;;;;;;;;;;;7.67;85.75;100723.09;5030210;28;19933;-88
2023/12/28 09:15:27;;;;;;;;;;;;;;;7.69;85.78;100717.88;5013427;28;19948;-84
2023/12/28 09:17:53;;;;;;;;;;;;;;;7.65;85.59;100712.66;5021087;28;20216;-85
2023/12/28 09:20:20;;;;;;;;;;;;;;;7.65;85.76;100712.66;5030245;28;20304;-84
2023/12/28 09:22:53;;;;;;;;;;;;;;;7.68;85.64;100711.78;5024758;28;19925;-85
2023/12/28 09:25:21;;;;;;;;;;;;;;;7.66;85.76;100730.06;5032943;28;19925;-84
2023/12/28 09:27:47;;;;;;;;;;;;;;;7.70;85.29;100724.84;5035375;28;19930;-86
2023/12/28 09:30:14;;;;;;;;;;;;;;;7.72;85.34;100723.97;5028723;28;19925;-84
2023/12/28 09:32:41;;;;;;;;;;;;;;;7.72;85.52;100725.69;5022241;28;19926;-84
2023/12/28 09:35:08;;;;;;;;;;;;;;;7.74;85.49;100731.81;5028111;28;19925;-84
2023/12/28 09:37:36;;;;;;;;;;;;;;;7.72;85.54;100733.53;5038582;28;20028;-84
2023/12/28 09:40:03;;;;;;;;;;;;;;;7.76;85.84;100741.41;5031037;28;20304;-86
2023/12/28 09:42:32;;;;;;;;;;;;;;;7.75;85.88;100741.38;5031229;28;19998;-85
2023/12/28 09:44:59;;;;;;;;;;;;;;;7.75;85.82;100723.09;5018520;28;19925;-85
2023/12/28 09:47:25;;;;;;;;;;;;;;;7.75;85.92;100717.88;5020130;28;19935;-84
2023/12/28 09:49:52;;;;;;;;;;;;;;;7.75;85.75;100720.47;5035659;28;19948;-85
2023/12/28 09:52:20;;;;;;;;;;;;;;;7.78;85.68;100720.50;5037950;28;19939;-85
2023/12/28 09:54:46;;;;;;;;;;;;;;;7.78;85.68;100717.91;5039039;28;19942;-85
2023/12/28 09:57:13;;;;;;;;;;;;;;;7.81;85.47;100728.34;5043009;28;19929;-84
2023/12/28 09:59:40;;;;;;;;;;;;;;;7.84;85.39;100723.13;5026069;28;19951;-86
2023/12/28 10:02:07;;;;;;;;;;;;;;;7.86;85.11;100723.13;5022192;28;19932;-85
2023/12/28 10:04:34;;;;;;;;;;;;;;;7.88;84.99;100732.72;5036964;28;20246;-83
2023/12/28 10:07:00;;;;;;;;;;;;;;;7.88;84.87;100730.09;5037396;28;19968;-85
2023/12/28 10:09:27;;;;;;;;;;;;;;;7.93;84.58;100720.50;5040015;28;19925;-84
2023/12/28 10:11:54;;;;;;;;;;;;;;;7.92;84.67;100721.38;5039689;28;19932;-85
2023/12/28 10:14:21;;;;;;;;;;;;;;;7.92;84.31;100713.56;5026585;28;19925;-87
2023/12/28 10:16:48;;;;;;;;;;;;;;;7.94;84.60;100709.19;5022119;28;19925;-85
2023/12/28 10:19:15;;;;;;;;;;;;;;;7.97;84.56;100703.94;5021666;28;19930;-87
2023/12/28 10:21:43;;;;;;;;;;;;;;;8.01;84.26;100694.38;5036694;28;19939;-84
2023/12/28 10:24:10;;;;;;;;;;;;;;;8.01;84.27;100704.84;5037593;28;20372;-84
2023/12/28 10:26:37;;;;;;;;;;;;;;;8.04;83.93;100710.06;5039811;28;20426;-85
2023/12/28 10:29:05;;;;;;;;;;;;;;;8.07;83.77;100719.66;5041752;28;20011;-84
2023/12/28 10:31:32;;;;;;;;;;;;;;;8.08;83.98;100714.41;5042234;28;19964;-85
2023/12/28 10:34:01;;;;;;;;;;;;;;;8.08;83.65;100718.75;5047229;28;19925;-85
2023/12/28 10:36:29;;;;;;;;;;;;;;;8.11;83.33;100716.13;5022185;28;20024;-86
2023/12/28 10:38:56;;;;;;;;;;;;;;;8.15;83.54;100715.25;5035756;28;19994;-85
2023/12/28 10:41:23;;;;;;;;;;;;;;;8.18;83.22;100707.41;5043191;28;20003;-85
2023/12/28 10:44:16;;;;;;;;;;;;;;;8.21;83.14;100712.63;5041926;28;20007;-85
2023/12/28 10:46:42;;;;;;;;;;;;;;;8.20;83.29;100710.91;5039262;28;19925;-84
2023/12/28 10:49:12;;;;;;;;;;;;;;;8.22;83.16;100713.53;5048933;28;19932;-85
2023/12/28 10:51:43;;;;;;;;;;;;;;;8.21;83.00;100711.78;5030143;28;19925;-85
2023/12/28 10:54:21;;;;;;;;;;;;;;;8.25;83.00;100703.91;5033244;28;20107;-85
2023/12/28 10:56:50;;;;;;;;;;;;;;;8.19;83.33;100703.94;5037053;28;19925;-85
2023/12/28 10:59:16;;;;;;;;;;;;;;;8.22;83.03;100700.47;5047553;28;20032;-84
2023/12/28 11:01:43;;;;;;;;;;;;;;;8.18;83.10;100697.84;5040527;28;20009;-85
2023/12/28 11:04:15;;;;;;;;;;;;;;;8.17;83.14;100701.31;5020880;28;19925;-85
2023/12/28 11:06:42;;;;;;;;;;;;;;;8.18;83.22;100687.41;5040236;28;19929;-86
2023/12/28 11:09:09;;;;;;;;;;;;;;;8.21;83.15;100698.72;5028661;28;19947;-84
2023/12/28 11:11:36;;;;;;;;;;;;;;;8.24;82.77;100691.75;5020865;28;19949;-87
2023/12/28 11:14:03;;;;;;;;;;;;;;;8.21;83.02;100702.19;5018601;28;19968;-85
2023/12/28 11:16:30;;;;;;;;;;;;;;;8.25;82.77;100692.59;5027171;28;19983;-85
2023/12/28 11:18:57;;;;;;;;;;;;;;;8.22;83.18;100693.47;5034510;28;20044;-86
2023/12/28 11:21:24;;;;;;;;;;;;;;;8.23;83.25;100686.53;5023419;28;19931;-84
2023/12/28 11:23:50;;;;;;;;;;;;;;;8.22;83.41;100671.69;5035114;28;19925;-85
2023/12/28 11:26:20;;;;;;;;;;;;;;;8.22;83.59;100680.41;5020689;28;19936;-84
2023/12/28 11:28:47;;;;;;;;;;;;;;;8.18;83.80;100676.03;5030844;28;20024;-85
2023/12/28 11:31:15;;;;;;;;;;;;;;;8.17;84.20;100679.56;5030368;28;20438;-84
2023/12/28 11:33:45;;;;;;;;;;;;;;;8.11;84.61;100669.97;5037649;28;19925;-83
2023/12/28 11:36:23;;;;;;;;;;;;;;;8.09;84.77;100660.38;5036888;28;19925;-85
2023/12/28 11:38:51;;;;;;;;;;;;;;;8.07;84.60;100665.63;5025464;28;19933;-84
2023/12/28 11:41:19;;;;;;;;;;;;;;;8.04;85.03;100657.78;5037191;28;19929;-85
2023/12/28 11:43:51;;;;;;;;;;;;;;;8.03;85.21;100663.88;5041100;28;19947;-85
2023/12/28 11:46:19;;;;;;;;;;;;;;;8.01;85.71;100668.25;5038565;28;19925;-85
2023/12/28 11:48:46;;;;;;;;;;;;;;;7.97;86.00;100669.97;5048236;28;19925;-84
2023/12/28 11:51:12;;;;;;;;;;;;;;;7.96;86.55;100667.38;5046793;28;19992;-84
2023/12/28 11:53:39;;;;;;;;;;;;;;;7.92;87.15;100665.63;5036060;28;20052;-84
2023/12/28 11:56:09;;;;;;;;;;;;;;;7.90;87.72;100662.16;5040430;28;19992;-83
2023/12/28 11:58:36;;;;;;;;;;;;;;;7.85;88.23;100659.53;5032079;28;19924;-85
2023/12/28 12:01:03;;;;;;;;;;;;;;;7.80;88.84;100659.53;5039948;28;19925;-85
2023/12/28 12:03:30;;;;;;;;;;;;;;;7.76;89.65;100649.97;5036492;28;19932;-85
2023/12/28 12:05:57;;;;;;;;;;;;;;;7.72;90.41;100658.66;5028271;28;19925;-95
2023/12/28 12:08:24;;;;;;;;;;;;;;;7.73;90.68;100656.91;5024315;28;19925;-85
2023/12/28 12:11:06;;;;;;;;;;;;;;;7.70;91.05;100664.75;5020858;28;19932;-84
2023/12/28 12:13:33;;;;;;;;;;;;;;;7.68;91.65;100658.69;5017189;28;19940;-85
2023/12/28 12:16:05;;;;;;;;;;;;;;;7.65;92.18;100665.63;5028971;28;19925;-84
2023/12/28 12:18:33;;;;;;;;;;;;;;;7.64;92.36;100653.44;5027123;28;19936;-84
2023/12/28 12:21:01;;;;;;;;;;;;;;;7.64;92.62;100650.81;5036343;28;19932;-84
2023/12/28 12:23:27;;;;;;;;;;;;;;;7.65;92.74;100644.72;5029605;28;19931;-85
2023/12/28 12:25:55;;;;;;;;;;;;;;;7.65;92.79;100639.50;5024975;28;19925;-84
2023/12/28 12:28:21;;;;;;;;;;;;;;;7.62;92.84;100639.50;5019074;28;19931;-85
2023/12/28 12:30:55;;;;;;;;;;;;;;;7.63;92.88;100630.81;5008393;28;19938;-84
2023/12/28 12:33:22;;;;;;;;;;;;;;;7.64;93.10;100632.53;5019778;28;19925;-84
2023/12/28 12:35:50;;;;;;;;;;;;;;;7.63;93.05;100629.91;5030079;28;19929;-83
2023/12/28 12:38:16;;;;;;;;;;;;;;;7.63;93.04;100633.41;5023280;28;19948;-83
2023/12/28 12:40:43;;;;;;;;;;;;;;;7.63;93.09;100636.03;5025285;28;20043;-83
2023/12/28 12:43:10;;;;;;;;;;;;;;;7.60;93.12;100628.19;5032204;28;19925;-84
2023/12/28 12:45:37;;;;;;;;;;;;;;;7.58;93.35;100626.44;5027272;28;19931;-83
2023/12/28 12:48:04;;;;;;;;;;;;;;;7.56;93.33;100623.84;5021912;28;19987;-83
2023/12/28 12:50:35;;;;;;;;;;;;;;;7.56;93.32;100625.56;5021159;28;19925;-83